Time;durP1;ratioP1;P1;durP2;ratioP2;P2;SDS_P1;SDS_P2;PMS_P1;PMS_P2;Temp;Humidity;BMP_temperature;BMP_pressure;BME280_temperature;BME280_humidity;BME280_pressure;Samples;Min_cycle;Max_cycle;Signal;HPM_P1;HPM_P2
2022/03/02 00:01:55;;;;;;;;;;;6.60;99.90;;;;;;5032600;28;20311;-75
2022/03/02 00:04:20;;;;;;;;;;;5.00;99.90;;;;;;5050998;28;19925;-75
2022/03/02 00:06:46;;;;;;;;;;;5.00;99.90;;;;;;5032633;28;19947;-74
2022/03/02 00:09:11;;;;;;;;;;;5.00;99.90;;;;;;5048913;28;20013;-75
2022/03/02 00:11:38;;;;;;;;;;;4.90;99.90;;;;;;5049391;28;19928;-74
2022/03/02 00:14:05;;;;;;;;;;;5.00;99.90;;;;;;5049990;28;19964;-75
2022/03/02 00:16:31;;;;;;;;;;;4.90;99.90;;;;;;5049641;28;19984;-75
2022/03/02 00:18:57;;;;;;;;;;;6.10;99.90;;;;;;5048093;28;20282;-75
2022/03/02 00:21:25;;;;;;;;;;;4.90;99.90;;;;;;5032055;28;19931;-74
2022/03/02 00:23:51;;;;;;;;;;;4.90;99.90;;;;;;5031883;28;20685;-75
2022/03/02 00:26:17;;;;;;;;;;;4.90;99.90;;;;;;5031593;28;19936;-75
2022/03/02 00:28:43;;;;;;;;;;;4.90;99.90;;;;;;5049530;28;20383;-75
2022/03/02 00:31:08;;;;;;;;;;;5.50;99.90;;;;;;5049288;28;19934;-75
2022/03/02 00:33:34;;;;;;;;;;;6.60;99.90;;;;;;5050609;28;19924;-75
2022/03/02 00:36:05;;;;;;;;;;;4.90;99.90;;;;;;5049836;28;19924;-75
2022/03/02 00:38:31;;;;;;;;;;;5.00;99.90;;;;;;5050754;28;19928;-75
2022/03/02 00:40:59;;;;;;;;;;;4.90;99.90;;;;;;5049569;28;19925;-75
2022/03/02 00:43:24;;;;;;;;;;;4.90;99.90;;;;;;5050063;28;20364;-75
2022/03/02 00:45:53;;;;;;;;;;;4.90;99.90;;;;;;5050078;28;19963;-75
2022/03/02 00:48:19;;;;;;;;;;;6.00;99.90;;;;;;5049930;28;19967;-75
2022/03/02 00:50:44;;;;;;;;;;;4.90;99.90;;;;;;5049072;28;19968;-75
2022/03/02 00:53:10;;;;;;;;;;;4.90;99.90;;;;;;5051417;28;19920;-75
2022/03/02 00:55:36;;;;;;;;;;;4.90;99.90;;;;;;5053465;28;19974;-75
2022/03/02 00:58:02;;;;;;;;;;;4.90;99.90;;;;;;5053584;28;19924;-75
2022/03/02 01:00:28;;;;;;;;;;;4.80;99.90;;;;;;5053102;28;19978;-75
2022/03/02 01:02:54;;;;;;;;;;;4.80;99.90;;;;;;5053043;28;19921;-75
2022/03/02 01:05:20;;;;;;;;;;;4.80;99.90;;;;;;5054076;28;20293;-75
2022/03/02 01:07:45;;;;;;;;;;;4.80;99.90;;;;;;5035940;28;19975;-75
2022/03/02 01:10:11;;;;;;;;;;;4.80;99.90;;;;;;5053168;28;19931;-75
2022/03/02 01:12:43;;;;;;;;;;;4.80;99.90;;;;;;5053099;28;20269;-75
2022/03/02 01:15:09;;;;;;;;;;;4.80;99.90;;;;;;5053323;28;19988;-75
2022/03/02 01:17:35;;;;;;;;;;;4.80;99.90;;;;;;5053208;28;20055;-75
2022/03/02 01:20:00;;;;;;;;;;;4.80;99.90;;;;;;5053145;28;20390;-75
2022/03/02 01:22:26;;;;;;;;;;;4.70;99.90;;;;;;5053503;28;19967;-75
2022/03/02 01:24:53;;;;;;;;;;;4.80;99.90;;;;;;5052533;28;19920;-75
2022/03/02 01:27:19;;;;;;;;;;;4.80;99.90;;;;;;5053349;28;19921;-75
2022/03/02 01:29:44;;;;;;;;;;;4.80;99.90;;;;;;5053201;28;19927;-75
2022/03/02 01:32:10;;;;;;;;;;;4.80;99.90;;;;;;5052524;28;19920;-75
2022/03/02 01:34:36;;;;;;;;;;;4.70;99.90;;;;;;5053378;28;19927;-76
2022/03/02 01:37:02;;;;;;;;;;;4.70;99.90;;;;;;5052881;28;19927;-75
2022/03/02 01:39:28;;;;;;;;;;;4.80;99.90;;;;;;5052995;28;20294;-75
2022/03/02 01:41:53;;;;;;;;;;;4.70;99.90;;;;;;5052702;28;20421;-75
2022/03/02 01:44:19;;;;;;;;;;;4.70;99.90;;;;;;5034471;28;19920;-75
2022/03/02 01:46:47;;;;;;;;;;;4.70;99.90;;;;;;5052780;28;19927;-75
2022/03/02 01:49:13;;;;;;;;;;;4.60;99.90;;;;;;5052398;28;19920;-75
2022/03/02 01:51:38;;;;;;;;;;;4.80;99.90;;;;;;5052347;28;19920;-75
2022/03/02 01:54:04;;;;;;;;;;;4.60;99.90;;;;;;5052411;28;19935;-75
2022/03/02 01:56:31;;;;;;;;;;;4.60;99.90;;;;;;5053081;28;20333;-75
2022/03/02 01:58:56;;;;;;;;;;;4.60;99.90;;;;;;5049904;28;20372;-75
2022/03/02 02:01:22;;;;;;;;;;;4.60;99.90;;;;;;5052935;28;19927;-75
2022/03/02 02:03:47;;;;;;;;;;;4.60;99.90;;;;;;5052621;28;19925;-75
2022/03/02 02:06:13;;;;;;;;;;;4.50;99.90;;;;;;5052033;28;19916;-75
2022/03/02 02:08:39;;;;;;;;;;;4.50;99.90;;;;;;5042282;28;20502;-75
2022/03/02 02:11:05;;;;;;;;;;;5.10;99.90;;;;;;5033018;28;19917;-75
2022/03/02 02:13:32;;;;;;;;;;;4.50;99.90;;;;;;5032351;28;19927;-76
2022/03/02 02:15:57;;;;;;;;;;;4.50;99.90;;;;;;5032635;28;19979;-75
2022/03/02 02:18:23;;;;;;;;;;;4.50;99.90;;;;;;5032625;28;19921;-75
2022/03/02 02:20:49;;;;;;;;;;;4.50;99.90;;;;;;5031620;28;19921;-75
2022/03/02 02:23:14;;;;;;;;;;;4.50;99.90;;;;;;5033920;28;19978;-75
2022/03/02 02:25:40;;;;;;;;;;;4.40;99.90;;;;;;5014703;28;19928;-75
2022/03/02 02:28:07;;;;;;;;;;;4.40;99.90;;;;;;5032113;28;19921;-75
2022/03/02 02:30:33;;;;;;;;;;;4.30;99.90;;;;;;5032740;28;19967;-75
2022/03/02 02:32:58;;;;;;;;;;;5.40;99.90;;;;;;5032271;28;20331;-75
2022/03/02 02:35:25;;;;;;;;;;;4.30;99.90;;;;;;5014620;28;19952;-75
2022/03/02 02:37:51;;;;;;;;;;;4.10;99.90;;;;;;5032259;28;19979;-75
2022/03/02 02:40:18;;;;;;;;;;;4.20;99.90;;;;;;5033476;28;19921;-75
2022/03/02 02:42:48;;;;;;;;;;;4.30;99.90;;;;;;5031709;28;19921;-75
2022/03/02 02:45:15;;;;;;;;;;;4.30;99.90;;;;;;5032193;28;20377;-75
2022/03/02 02:47:41;;;;;;;;;;;4.30;99.90;;;;;;5031963;28;19921;-75
2022/03/02 02:50:14;;;;;;;;;;;4.70;99.90;;;;;;5033243;28;20392;-75
2022/03/02 02:52:39;;;;;;;;;;;4.20;99.90;;;;;;5032228;28;19928;-75
2022/03/02 02:55:08;;;;;;;;;;;4.20;99.90;;;;;;5035742;28;19917;-75
2022/03/02 02:57:34;;;;;;;;;;;4.20;99.90;;;;;;5036346;28;20365;-75
2022/03/02 02:59:59;;;;;;;;;;;4.10;99.90;;;;;;5018142;28;19925;-75
2022/03/02 03:02:25;;;;;;;;;;;4.10;99.90;;;;;;5037413;28;19928;-75
2022/03/02 03:04:50;;;;;;;;;;;4.00;99.90;;;;;;5036056;28;19964;-75
2022/03/02 03:07:16;;;;;;;;;;;3.90;99.90;;;;;;5035961;28;19968;-75
2022/03/02 03:09:41;;;;;;;;;;;3.80;99.90;;;;;;5035783;28;19921;-75
2022/03/02 03:12:10;;;;;;;;;;;3.80;99.90;;;;;;5049689;28;19920;-75
2022/03/02 03:14:35;;;;;;;;;;;3.70;99.90;;;;;;5054300;28;20300;-75
2022/03/02 03:17:01;;;;;;;;;;;3.70;99.90;;;;;;5054983;28;19924;-75
2022/03/02 03:19:26;;;;;;;;;;;3.70;99.90;;;;;;5055904;28;19947;-75
2022/03/02 03:21:52;;;;;;;;;;;3.60;99.90;;;;;;5055722;28;19920;-75
2022/03/02 03:24:17;;;;;;;;;;;3.50;99.90;;;;;;5055401;28;19925;-75
2022/03/02 03:26:43;;;;;;;;;;;3.40;99.90;;;;;;5053684;28;20024;-75
2022/03/02 03:29:08;;;;;;;;;;;3.30;99.90;;;;;;5055642;28;19921;-75
2022/03/02 03:31:34;;;;;;;;;;;5.00;99.90;;;;;;5055139;28;19921;-75
2022/03/02 03:34:19;;;;;;;;;;;3.20;99.90;;;;;;5055410;28;19924;-75
2022/03/02 03:36:45;;;;;;;;;;;2.10;99.90;;;;;;5040154;28;19920;-75
2022/03/02 03:39:10;;;;;;;;;;;3.00;99.90;;;;;;5054972;28;20441;-76
2022/03/02 03:41:39;;;;;;;;;;;3.00;99.90;;;;;;5053576;28;19921;-75
2022/03/02 03:44:07;;;;;;;;;;;2.90;99.90;;;;;;5054696;28;19920;-76
2022/03/02 03:46:33;;;;;;;;;;;2.80;99.90;;;;;;5055764;28;20024;-76
2022/03/02 03:48:58;;;;;;;;;;;4.60;99.90;;;;;;5037348;28;20260;-75
2022/03/02 03:51:24;;;;;;;;;;;2.70;99.90;;;;;;5054853;28;19921;-75
2022/03/02 03:53:49;;;;;;;;;;;2.80;99.90;;;;;;5055208;28;19920;-75
2022/03/02 03:56:15;;;;;;;;;;;3.10;99.90;;;;;;5053759;28;19925;-75
2022/03/02 03:58:40;;;;;;;;;;;2.60;99.90;;;;;;5053786;28;19920;-75
2022/03/02 04:01:05;;;;;;;;;;;2.70;99.90;;;;;;5055305;28;19987;-76
2022/03/02 04:03:31;;;;;;;;;;;2.60;99.90;;;;;;5054991;28;20103;-76
2022/03/02 04:05:56;;;;;;;;;;;2.60;99.90;;;;;;5054213;28;19920;-76
2022/03/02 04:08:22;;;;;;;;;;;2.60;99.90;;;;;;5052840;28;19951;-76
2022/03/02 04:10:49;;;;;;;;;;;2.60;99.90;;;;;;5055028;28;19931;-76
2022/03/02 04:13:15;;;;;;;;;;;2.60;99.90;;;;;;5054089;28;19979;-75
2022/03/02 04:15:40;;;;;;;;;;;2.60;99.90;;;;;;5054574;28;20335;-75
2022/03/02 04:18:06;;;;;;;;;;;2.50;99.90;;;;;;5025392;28;19921;-76
2022/03/02 04:20:32;;;;;;;;;;;4.30;99.90;;;;;;5034419;28;19975;-76
2022/03/02 04:23:02;;;;;;;;;;;2.50;99.90;;;;;;5034378;28;19929;-76
2022/03/02 04:25:28;;;;;;;;;;;2.40;99.90;;;;;;5017379;28;19931;-76
2022/03/02 04:27:53;;;;;;;;;;;2.50;99.90;;;;;;5033528;28;19920;-76
2022/03/02 04:30:20;;;;;;;;;;;2.40;99.90;;;;;;5034695;28;19921;-76
2022/03/02 04:32:48;;;;;;;;;;;2.30;99.90;;;;;;5035353;28;19925;-76
2022/03/02 04:35:14;;;;;;;;;;;2.40;99.90;;;;;;5014507;28;19927;-76
2022/03/02 04:37:40;;;;;;;;;;;2.40;99.90;;;;;;5032821;28;19921;-76
2022/03/02 04:40:06;;;;;;;;;;;2.40;99.90;;;;;;5033846;28;19917;-76
2022/03/02 04:42:32;;;;;;;;;;;2.40;99.90;;;;;;5033777;28;20452;-76
2022/03/02 04:44:58;;;;;;;;;;;2.40;99.90;;;;;;5033620;28;19968;-76
2022/03/02 04:47:23;;;;;;;;;;;3.20;99.90;;;;;;5033444;28;19921;-76
2022/03/02 04:49:49;;;;;;;;;;;3.70;99.90;;;;;;5033783;28;20371;-76
2022/03/02 04:52:15;;;;;;;;;;;3.10;99.90;;;;;;5033975;28;19964;-76
2022/03/02 04:57:24;;;;;;;;;;;2.30;99.90;;;;;;5032217;28;19932;-76
2022/03/02 04:59:50;;;;;;;;;;;2.30;99.90;;;;;;5031718;28;19921;-76
2022/03/02 05:02:17;;;;;;;;;;;3.20;99.90;;;;;;5031701;28;19921;-76
2022/03/02 05:04:43;;;;;;;;;;;2.40;99.90;;;;;;5032797;28;19921;-76
2022/03/02 05:07:08;;;;;;;;;;;2.40;99.90;;;;;;5033775;28;20301;-76
2022/03/02 05:09:34;;;;;;;;;;;3.50;99.90;;;;;;5032951;28;20343;-76
2022/03/02 05:12:02;;;;;;;;;;;2.40;99.90;;;;;;5033318;28;20335;-76
2022/03/02 05:14:28;;;;;;;;;;;3.30;99.90;;;;;;5034389;28;20409;-76
2022/03/02 05:16:54;;;;;;;;;;;2.30;99.90;;;;;;5032532;28;19921;-76
2022/03/02 05:19:19;;;;;;;;;;;2.20;99.90;;;;;;5031387;28;20411;-76
2022/03/02 05:21:45;;;;;;;;;;;3.80;99.90;;;;;;5031121;28;19921;-76
2022/03/02 05:24:10;;;;;;;;;;;2.20;99.90;;;;;;5037086;28;19956;-76
2022/03/02 05:26:36;;;;;;;;;;;1.40;99.90;;;;;;5051682;28;19978;-76
2022/03/02 05:29:02;;;;;;;;;;;0.90;99.90;;;;;;5051181;28;20291;-76
2022/03/02 05:31:27;;;;;;;;;;;2.10;99.90;;;;;;5033278;28;20372;-76
2022/03/02 05:33:53;;;;;;;;;;;2.10;99.90;;;;;;5052527;28;19928;-76
2022/03/02 05:36:19;;;;;;;;;;;2.00;99.90;;;;;;5052949;28;19928;-76
2022/03/02 05:38:44;;;;;;;;;;;2.00;99.90;;;;;;5051181;28;19920;-75
2022/03/02 05:41:10;;;;;;;;;;;2.00;99.90;;;;;;5051985;28;19928;-76
2022/03/02 05:43:35;;;;;;;;;;;1.90;99.90;;;;;;5034275;28;19928;-76
2022/03/02 05:46:01;;;;;;;;;;;1.90;99.90;;;;;;5052873;28;20015;-78
2022/03/02 05:48:26;;;;;;;;;;;1.90;99.90;;;;;;5052811;28;19921;-76
2022/03/02 05:50:52;;;;;;;;;;;2.00;99.90;;;;;;5052428;28;19928;-76
2022/03/02 05:53:17;;;;;;;;;;;1.90;99.90;;;;;;5052363;28;19932;-76
2022/03/02 05:55:43;;;;;;;;;;;1.90;99.90;;;;;;5051087;28;20414;-76
2022/03/02 05:58:09;;;;;;;;;;;1.90;99.90;;;;;;5034102;28;19921;-76
2022/03/02 06:00:34;;;;;;;;;;;1.90;99.90;;;;;;5051456;28;19925;-76
2022/03/02 06:03:00;;;;;;;;;;;1.80;99.90;;;;;;5051211;28;19927;-75
2022/03/02 06:05:25;;;;;;;;;;;1.90;99.90;;;;;;5047213;28;20376;-76
2022/03/02 06:07:51;;;;;;;;;;;1.80;99.90;;;;;;5041118;28;19966;-80
2022/03/02 06:10:18;;;;;;;;;;;1.80;99.90;;;;;;5057040;28;19944;-78
2022/03/02 06:12:44;;;;;;;;;;;1.80;99.90;;;;;;5040552;28;20394;-75
2022/03/02 06:15:10;;;;;;;;;;;1.70;99.90;;;;;;5067286;28;19968;-72
2022/03/02 06:17:35;;;;;;;;;;;1.70;99.90;;;;;;5047702;28;19928;-78
2022/03/02 06:20:01;;;;;;;;;;;1.70;99.90;;;;;;5030827;28;19928;-74
2022/03/02 06:22:27;;;;;;;;;;;1.70;99.90;;;;;;5026454;28;20324;-78
2022/03/02 06:24:52;;;;;;;;;;;1.70;99.90;;;;;;5021499;28;19921;-75
2022/03/02 06:27:20;;;;;;;;;;;1.60;99.90;;;;;;5014214;28;20265;-78
2022/03/02 06:29:46;;;;;;;;;;;1.60;99.90;;;;;;5032180;28;19928;-71
2022/03/02 06:32:17;;;;;;;;;;;1.60;99.90;;;;;;5017218;28;19920;-73
2022/03/02 06:34:43;;;;;;;;;;;1.60;99.90;;;;;;5030671;28;19972;-72
2022/03/02 06:37:11;;;;;;;;;;;1.60;99.90;;;;;;5030884;28;19921;-74
2022/03/02 06:39:36;;;;;;;;;;;1.60;99.90;;;;;;5029320;28;20300;-72
2022/03/02 06:42:11;;;;;;;;;;;1.60;99.90;;;;;;5029944;28;19967;-72
2022/03/02 06:44:39;;;;;;;;;;;1.60;99.90;;;;;;5031425;28;19921;-80
2022/03/02 06:47:09;;;;;;;;;;;1.60;99.90;;;;;;5030751;28;19925;-74
2022/03/02 06:49:53;;;;;;;;;;;1.60;99.90;;;;;;5030556;28;19917;-77
2022/03/02 06:52:20;;;;;;;;;;;1.60;99.90;;;;;;5030139;28;19932;-76
2022/03/02 06:54:47;;;;;;;;;;;1.60;99.90;;;;;;5027702;28;19917;-72
2022/03/02 06:57:14;;;;;;;;;;;1.60;99.90;;;;;;5031650;28;20456;-75
2022/03/02 06:59:43;;;;;;;;;;;1.60;99.90;;;;;;5036991;28;19921;-73
2022/03/02 07:02:11;;;;;;;;;;;1.60;99.90;;;;;;5037778;28;19967;-73
2022/03/02 07:04:40;;;;;;;;;;;1.60;99.90;;;;;;5046530;28;19966;-74
2022/03/02 07:07:06;;;;;;;;;;;1.70;99.90;;;;;;5034097;28;19921;-72
2022/03/02 07:09:33;;;;;;;;;;;1.70;99.90;;;;;;5033983;28;19925;-73
2022/03/02 07:12:00;;;;;;;;;;;1.70;99.90;;;;;;5025755;28;20068;-73
2022/03/02 07:14:27;;;;;;;;;;;1.80;99.90;;;;;;5021633;28;20027;-71
2022/03/02 07:16:55;;;;;;;;;;;3.20;99.90;;;;;;5051141;28;19927;-70
2022/03/02 07:19:21;;;;;;;;;;;1.90;99.90;;;;;;5033797;28;19925;-71
2022/03/02 07:21:46;;;;;;;;;;;1.90;99.90;;;;;;5033970;28;20257;-71
2022/03/02 07:24:16;;;;;;;;;;;2.00;99.90;;;;;;5033301;28;19951;-72
2022/03/02 07:26:43;;;;;;;;;;;2.00;99.90;;;;;;5033607;28;19921;-72
2022/03/02 07:29:09;;;;;;;;;;;2.00;99.90;;;;;;5050801;28;20368;-72
2022/03/02 07:31:35;;;;;;;;;;;2.10;99.90;;;;;;5033695;28;19928;-72
2022/03/02 07:34:02;;;;;;;;;;;2.10;99.90;;;;;;5014030;28;20288;-72
2022/03/02 07:36:27;;;;;;;;;;;2.20;99.90;;;;;;5013706;28;20045;-74
2022/03/02 07:38:53;;;;;;;;;;;2.20;99.90;;;;;;5013780;28;20055;-73
2022/03/02 07:41:18;;;;;;;;;;;2.30;99.90;;;;;;5020972;28;20329;-74
2022/03/02 07:43:50;;;;;;;;;;;2.30;99.90;;;;;;5024226;28;19928;-72
2022/03/02 07:46:19;;;;;;;;;;;2.40;99.90;;;;;;5036338;28;19954;-72
2022/03/02 07:48:44;;;;;;;;;;;2.50;99.90;;;;;;5042920;28;20000;-72
2022/03/02 07:51:10;;;;;;;;;;;2.60;99.90;;;;;;5054748;28;19964;-71
2022/03/02 07:53:37;;;;;;;;;;;2.60;99.90;;;;;;5055386;28;20360;-74
2022/03/02 07:56:04;;;;;;;;;;;2.70;99.90;;;;;;5036641;28;19960;-73
2022/03/02 07:58:29;;;;;;;;;;;2.70;99.90;;;;;;5026130;28;19995;-72
2022/03/02 08:00:55;;;;;;;;;;;2.80;99.90;;;;;;5034995;28;19972;-72
2022/03/02 08:03:23;;;;;;;;;;;2.90;99.90;;;;;;5028539;28;19924;-73
2022/03/02 08:05:49;;;;;;;;;;;3.00;99.90;;;;;;5032983;28;19956;-72
2022/03/02 08:08:15;;;;;;;;;;;3.10;99.90;;;;;;5039566;28;20370;-74
2022/03/02 08:10:42;;;;;;;;;;;3.10;99.90;;;;;;5056435;28;19920;-74
2022/03/02 08:13:10;;;;;;;;;;;3.20;99.90;;;;;;5056627;28;20042;-71
2022/03/02 08:15:36;;;;;;;;;;;3.50;99.90;;;;;;5056881;28;19920;-72
2022/03/02 08:18:01;;;;;;;;;;;4.50;99.90;;;;;;5035747;28;19921;-74
2022/03/02 08:20:27;;;;;;;;;;;5.70;99.90;;;;;;5016582;28;19921;-73
2022/03/02 08:22:55;;;;;;;;;;;6.90;99.90;;;;;;5015390;28;19928;-76
2022/03/02 08:25:25;;;;;;;;;;;7.80;99.90;;;;;;5043318;28;19921;-74
2022/03/02 08:27:53;;;;;;;;;;;8.80;99.90;;;;;;5034340;28;19921;-74
2022/03/02 08:30:18;;;;;;;;;;;9.70;99.90;;;;;;5035693;28;19924;-74
2022/03/02 08:32:45;;;;;;;;;;;10.20;99.90;;;;;;5032512;28;20020;-75
2022/03/02 08:35:11;;;;;;;;;;;10.90;99.90;;;;;;5034447;28;19921;-76
2022/03/02 08:37:37;;;;;;;;;;;11.30;99.90;;;;;;5033854;28;19955;-76
2022/03/02 08:40:03;;;;;;;;;;;11.80;99.90;;;;;;5034212;28;20009;-76
2022/03/02 08:42:30;;;;;;;;;;;12.30;99.90;;;;;;5053898;28;19921;-76
2022/03/02 08:44:55;;;;;;;;;;;12.60;99.90;;;;;;5035629;28;19928;-76
2022/03/02 08:47:24;;;;;;;;;;;12.90;99.90;;;;;;5035231;28;20288;-76
2022/03/02 08:49:50;;;;;;;;;;;12.90;99.90;;;;;;5053073;28;19972;-76
2022/03/02 08:52:17;;;;;;;;;;;13.20;99.90;;;;;;5036322;28;19921;-75
2022/03/02 08:54:46;;;;;;;;;;;13.30;99.90;;;;;;5047937;28;19921;-75
2022/03/02 08:57:12;;;;;;;;;;;13.30;99.90;;;;;;5033009;28;20010;-75
2022/03/02 08:59:38;;;;;;;;;;;13.70;99.90;;;;;;5039237;28;20396;-75
2022/03/02 09:02:06;;;;;;;;;;;14.00;99.10;;;;;;5051120;28;19966;-75
2022/03/02 09:04:33;;;;;;;;;;;14.00;99.90;;;;;;5048041;28;19920;-75
2022/03/02 09:07:00;;;;;;;;;;;14.00;99.90;;;;;;5042857;28;19920;-75
2022/03/02 09:09:25;;;;;;;;;;;13.70;99.70;;;;;;5033457;28;19928;-75
2022/03/02 09:11:51;;;;;;;;;;;13.80;99.90;;;;;;5016044;28;19921;-75
2022/03/02 09:14:17;;;;;;;;;;;13.60;97.50;;;;;;5033743;28;19917;-75
2022/03/02 09:16:44;;;;;;;;;;;13.40;98.00;;;;;;5029102;28;19921;-75
2022/03/02 09:19:10;;;;;;;;;;;14.00;99.90;;;;;;5034046;28;19917;-75
2022/03/02 09:21:36;;;;;;;;;;;14.40;98.80;;;;;;5052492;28;19921;-75
2022/03/02 09:24:05;;;;;;;;;;;14.60;98.50;;;;;;5053247;28;20415;-75
2022/03/02 09:26:30;;;;;;;;;;;14.20;98.00;;;;;;5054040;28;19920;-75
2022/03/02 09:28:57;;;;;;;;;;;14.20;98.00;;;;;;5052811;28;20344;-75
2022/03/02 09:31:22;;;;;;;;;;;14.90;98.30;;;;;;5035273;28;19916;-75
2022/03/02 09:33:49;;;;;;;;;;;15.10;96.30;;;;;;5052170;28;19977;-75
2022/03/02 09:36:18;;;;;;;;;;;14.20;96.90;;;;;;5035095;28;20368;-75
2022/03/02 09:38:47;;;;;;;;;;;14.70;97.60;;;;;;5053078;28;20009;-75
2022/03/02 09:41:15;;;;;;;;;;;15.00;96.30;;;;;;5052906;28;20265;-74
2022/03/02 09:43:42;;;;;;;;;;;15.20;95.60;;;;;;5052378;28;19921;-74
2022/03/02 09:46:09;;;;;;;;;;;15.30;96.10;;;;;;5044973;28;20005;-75
2022/03/02 09:48:40;;;;;;;;;;;14.90;94.90;;;;;;5036125;28;19921;-74
2022/03/02 09:51:08;;;;;;;;;;;15.00;97.00;;;;;;5057805;28;19921;-74
2022/03/02 09:53:34;;;;;;;;;;;15.50;95.00;;;;;;5050087;28;19964;-74
2022/03/02 09:56:04;;;;;;;;;;;15.80;95.70;;;;;;5063141;28;19924;-74
2022/03/02 09:58:30;;;;;;;;;;;15.90;95.50;;;;;;5032159;28;20020;-74
2022/03/02 10:00:56;;;;;;;;;;;16.30;95.50;;;;;;5032658;28;19968;-75
2022/03/02 10:03:24;;;;;;;;;;;16.60;93.90;;;;;;5014647;28;19921;-74
2022/03/02 10:05:50;;;;;;;;;;;17.00;92.80;;;;;;5021659;28;20360;-74
2022/03/02 10:08:18;;;;;;;;;;;17.10;92.90;;;;;;5031535;28;19925;-74
2022/03/02 10:10:46;;;;;;;;;;;16.90;92.80;;;;;;5030999;28;19975;-75
2022/03/02 10:13:12;;;;;;;;;;;16.80;93.50;;;;;;5031345;28;19921;-74
2022/03/02 10:15:39;;;;;;;;;;;17.30;93.00;;;;;;5031526;28;20009;-74
2022/03/02 10:18:05;;;;;;;;;;;17.10;90.70;;;;;;5032077;28;20051;-74
2022/03/02 10:20:33;;;;;;;;;;;17.40;91.10;;;;;;5032981;28;19921;-74
2022/03/02 10:23:18;;;;;;;;;;;17.50;90.10;;;;;;5030277;28;19931;-74
2022/03/02 10:26:01;;;;;;;;;;;17.90;89.70;;;;;;5030767;28;19921;-75
2022/03/02 10:28:30;;;;;;;;;;;17.80;85.80;;;;;;5031538;28;19917;-75
2022/03/02 10:31:18;;;;;;;;;;;18.10;86.30;;;;;;5031426;28;19974;-75
2022/03/02 10:33:52;;;;;;;;;;;18.30;84.90;;;;;;5003384;28;19921;-75
2022/03/02 10:36:23;;;;;;;;;;;18.10;88.30;;;;;;5043577;28;19916;-77
2022/03/02 10:38:58;;;;;;;;;;;18.20;85.60;;;;;;5037454;28;19920;-77
2022/03/02 10:41:25;;;;;;;;;;;18.40;82.70;;;;;;5033923;28;19920;-79
2022/03/02 10:44:02;;;;;;;;;;;18.80;81.10;;;;;;5026064;28;19925;-77
2022/03/02 10:46:27;;;;;;;;;;;18.80;85.30;;;;;;5017649;28;19927;-77
2022/03/02 10:49:01;;;;;;;;;;;19.00;80.40;;;;;;5033468;28;20295;-77
2022/03/02 10:51:27;;;;;;;;;;;19.30;75.00;;;;;;5034390;28;20740;-77
2022/03/02 10:53:55;;;;;;;;;;;19.50;80.40;;;;;;5035927;28;19921;-76
2022/03/02 10:56:25;;;;;;;;;;;19.70;80.20;;;;;;5031543;28;19929;-77
2022/03/02 10:58:51;;;;;;;;;;;19.10;72.90;;;;;;5024971;28;20364;-77
2022/03/02 11:01:17;;;;;;;;;;;19.00;77.10;;;;;;5013868;28;19960;-77
2022/03/02 11:03:44;;;;;;;;;;;19.20;79.10;;;;;;5013815;28;20321;-78
2022/03/02 11:06:11;;;;;;;;;;;19.20;71.70;;;;;;5025209;28;19921;-78
2022/03/02 11:08:37;;;;;;;;;;;18.90;77.60;;;;;;5033169;28;19921;-77
2022/03/02 11:11:05;;;;;;;;;;;19.50;79.70;;;;;;5020818;28;19963;-74
2022/03/02 11:13:31;;;;;;;;;;;19.80;73.90;;;;;;5035274;28;19929;-77
2022/03/02 11:15:58;;;;;;;;;;;20.10;73.80;;;;;;5035890;28;19933;-74
2022/03/02 11:18:40;;;;;;;;;;;19.80;73.20;;;;;;5037566;28;19920;-75
2022/03/02 11:21:07;;;;;;;;;;;19.40;69.70;;;;;;5035463;28;19921;-74
2022/03/02 11:23:39;;;;;;;;;;;19.10;69.80;;;;;;5036032;28;19921;-73
2022/03/02 11:26:07;;;;;;;;;;;18.50;73.40;;;;;;5031742;28;19921;-73
2022/03/02 11:28:34;;;;;;;;;;;18.80;76.80;;;;;;5034362;28;19971;-75
2022/03/02 11:31:09;;;;;;;;;;;19.00;80.80;;;;;;5036312;28;19924;-74
2022/03/02 11:33:35;;;;;;;;;;;19.30;75.80;;;;;;5030065;28;19921;-74
2022/03/02 11:36:19;;;;;;;;;;;18.80;75.90;;;;;;5033608;28;19920;-75
2022/03/02 11:38:47;;;;;;;;;;;18.60;80.60;;;;;;5034256;28;20009;-73
2022/03/02 11:41:13;;;;;;;;;;;19.00;74.70;;;;;;5034195;28;19921;-73
2022/03/02 11:43:47;;;;;;;;;;;18.30;73.50;;;;;;5036556;28;20062;-71
2022/03/02 11:46:15;;;;;;;;;;;18.50;75.30;;;;;;5017721;28;19921;-73
2022/03/02 11:48:42;;;;;;;;;;;18.40;78.30;;;;;;5038638;28;19920;-73
2022/03/02 11:51:23;;;;;;;;;;;18.60;77.50;;;;;;5051031;28;20323;-74
2022/03/02 11:53:56;;;;;;;;;;;18.50;78.50;;;;;;5054487;28;19924;-75
2022/03/02 11:56:23;;;;;;;;;;;18.70;75.70;;;;;;5036485;28;19924;-75
2022/03/02 11:58:56;;;;;;;;;;;18.80;77.40;;;;;;5036184;28;19955;-74
2022/03/02 12:01:25;;;;;;;;;;;19.20;80.70;;;;;;5036493;28;19921;-75
2022/03/02 12:04:09;;;;;;;;;;;19.30;70.70;;;;;;5036596;28;20353;-74
2022/03/02 12:06:39;;;;;;;;;;;18.90;77.10;;;;;;5037017;28;19920;-74
2022/03/02 12:09:05;;;;;;;;;;;19.10;79.60;;;;;;5037149;28;19927;-74
2022/03/02 12:11:35;;;;;;;;;;;19.60;79.80;;;;;;5054176;28;20011;-73
2022/03/02 12:14:05;;;;;;;;;;;19.20;72.70;;;;;;5036488;28;19921;-74
2022/03/02 12:16:41;;;;;;;;;;;19.20;77.70;;;;;;5036766;28;19972;-74
2022/03/02 12:19:26;;;;;;;;;;;19.00;76.70;;;;;;5035948;28;19921;-74
2022/03/02 12:21:59;;;;;;;;;;;19.30;75.60;;;;;;5036201;28;20364;-74
2022/03/02 12:24:26;;;;;;;;;;;19.50;75.00;;;;;;5035425;28;19963;-74
2022/03/02 12:26:58;;;;;;;;;;;19.40;71.90;;;;;;5054572;28;19920;-75
2022/03/02 12:29:25;;;;;;;;;;;19.60;74.40;;;;;;5036734;28;19920;-74
2022/03/02 12:32:04;;;;;;;;;;;19.60;72.80;;;;;;5052972;28;20015;-74
2022/03/02 12:34:32;;;;;;;;;;;19.40;69.30;;;;;;5024936;28;19921;-75
2022/03/02 12:36:58;;;;;;;;;;;19.60;71.00;;;;;;5053607;28;19978;-77
2022/03/02 12:39:24;;;;;;;;;;;19.30;75.90;;;;;;5035871;28;19956;-81
2022/03/02 12:41:49;;;;;;;;;;;19.30;77.70;;;;;;5036225;28;19921;-80
2022/03/02 12:44:15;;;;;;;;;;;19.20;77.40;;;;;;5036109;28;20423;-81
2022/03/02 12:46:40;;;;;;;;;;;19.40;71.10;;;;;;5035086;28;20024;-81
2022/03/02 12:49:07;;;;;;;;;;;19.50;71.70;;;;;;5032427;28;19965;-81
2022/03/02 12:51:32;;;;;;;;;;;19.70;69.70;;;;;;5034468;28;19921;-81
2022/03/02 12:53:58;;;;;;;;;;;19.00;72.80;;;;;;5028306;28;20015;-81
2022/03/02 12:56:24;;;;;;;;;;;19.40;75.70;;;;;;5036070;28;19943;-81
2022/03/02 12:58:49;;;;;;;;;;;18.80;72.70;;;;;;5053267;28;19924;-80
2022/03/02 13:01:15;;;;;;;;;;;19.00;76.70;;;;;;5047354;28;20295;-80
2022/03/02 13:03:46;;;;;;;;;;;19.50;79.50;;;;;;5027452;28;19946;-81
2022/03/02 13:06:13;;;;;;;;;;;18.90;76.80;;;;;;5027004;28;19959;-81
2022/03/02 13:08:50;;;;;;;;;;;18.80;76.40;;;;;;5029841;28;19990;-78
2022/03/02 13:11:27;;;;;;;;;;;18.50;77.50;;;;;;5031705;28;20011;-82
2022/03/02 13:13:53;;;;;;;;;;;18.00;80.40;;;;;;5030950;28;19921;-82
2022/03/02 13:16:20;;;;;;;;;;;17.90;84.40;;;;;;5032122;28;20457;-77
2022/03/02 13:18:47;;;;;;;;;;;17.60;85.30;;;;;;5033709;28;19921;-78
2022/03/02 13:21:20;;;;;;;;;;;18.00;91.30;;;;;;5052625;28;20288;-78
2022/03/02 13:24:04;;;;;;;;;;;16.80;94.40;;;;;;5050000;28;20049;-78
2022/03/02 13:26:32;;;;;;;;;;;16.50;95.00;;;;;;5016051;28;19921;-78
2022/03/02 13:29:15;;;;;;;;;;;15.80;96.80;;;;;;5015238;28;19932;-78
2022/03/02 13:32:00;;;;;;;;;;;15.60;97.00;;;;;;5025410;28;20372;-84
2022/03/02 13:34:27;;;;;;;;;;;15.20;97.70;;;;;;5032628;28;19966;-81
2022/03/02 13:36:54;;;;;;;;;;;14.80;99.00;;;;;;5014267;28;19921;-80
2022/03/02 13:39:22;;;;;;;;;;;14.50;98.50;;;;;;5032965;28;20391;-77
2022/03/02 13:41:52;;;;;;;;;;;14.20;99.40;;;;;;5032782;28;20367;-78
2022/03/02 13:44:29;;;;;;;;;;;14.00;99.90;;;;;;5032952;28;19920;-77
2022/03/02 13:47:07;;;;;;;;;;;13.90;99.90;;;;;;5016570;28;20506;-77
2022/03/02 13:49:52;;;;;;;;;;;13.80;99.90;;;;;;5033950;28;19917;-78
2022/03/02 13:52:18;;;;;;;;;;;13.70;99.90;;;;;;5033056;28;19921;-77
2022/03/02 13:54:44;;;;;;;;;;;13.50;99.90;;;;;;5033517;28;19916;-79
2022/03/02 13:57:20;;;;;;;;;;;13.30;99.90;;;;;;5014970;28;19921;-78
2022/03/02 13:59:45;;;;;;;;;;;13.20;99.90;;;;;;5016144;28;19924;-78
2022/03/02 14:02:11;;;;;;;;;;;13.00;99.90;;;;;;5050902;28;19920;-78
2022/03/02 14:04:41;;;;;;;;;;;13.00;99.90;;;;;;5033651;28;20423;-78
2022/03/02 14:07:13;;;;;;;;;;;12.80;99.90;;;;;;5052165;28;19921;-79
2022/03/02 14:09:39;;;;;;;;;;;14.00;99.90;;;;;;5052853;28;19931;-77
2022/03/02 14:12:08;;;;;;;;;;;12.60;99.90;;;;;;5051850;28;19921;-79
2022/03/02 14:14:34;;;;;;;;;;;12.60;99.90;;;;;;5052938;28;19927;-77
2022/03/02 14:17:04;;;;;;;;;;;12.60;99.90;;;;;;5033798;28;19962;-79
2022/03/02 14:19:50;;;;;;;;;;;12.30;99.90;;;;;;5034312;28;19920;-79
2022/03/02 14:22:20;;;;;;;;;;;12.20;99.90;;;;;;5046657;28;19925;-80
2022/03/02 14:24:47;;;;;;;;;;;12.20;99.90;;;;;;5027304;28;19982;-77
2022/03/02 14:27:20;;;;;;;;;;;12.00;99.90;;;;;;5045639;28;19924;-77
2022/03/02 14:30:05;;;;;;;;;;;11.80;99.90;;;;;;5050663;28;19932;-76